createdAt,value
2019-02-05T00:00:37.034Z,12.73
2019-02-05T00:03:11.201Z,8.57
2019-02-05T00:05:40.124Z,6.77
2019-02-05T00:08:08.775Z,12.13
2019-02-05T00:10:37.361Z,7.90
2019-02-05T00:13:06.259Z,13.27
2019-02-05T00:15:35.030Z,8.50
2019-02-05T00:18:03.853Z,9.63
2019-02-05T00:20:32.419Z,10.10
2019-02-05T00:23:01.078Z,10.67
2019-02-05T00:25:29.702Z,8.90
2019-02-05T00:27:58.476Z,7.97
2019-02-05T00:30:27.462Z,10.17
2019-02-05T00:32:56.035Z,11.60
2019-02-05T00:35:24.590Z,9.43
2019-02-05T00:37:53.306Z,11.73
2019-02-05T00:40:22.059Z,8.70
2019-02-05T00:42:50.646Z,10.37
2019-02-05T00:45:20.454Z,10.50
2019-02-05T00:47:49.107Z,10.83
2019-02-05T00:50:19.318Z,11.30
2019-02-05T00:52:47.943Z,10.60
2019-02-05T00:55:18.363Z,11.20
2019-02-05T00:57:47.282Z,13.27
2019-02-05T01:00:22.222Z,9.93
2019-02-05T01:02:51.131Z,9.67
2019-02-05T01:05:20.299Z,11.00
2019-02-05T01:07:49.095Z,10.40
2019-02-05T01:10:18.419Z,17.20
2019-02-05T01:12:47.236Z,9.77
2019-02-05T01:15:17.836Z,11.43
2019-02-05T01:17:46.573Z,7.73
2019-02-05T01:20:17.380Z,10.13
2019-02-05T01:22:46.495Z,8.87
2019-02-05T01:25:16.725Z,9.27
2019-02-05T01:27:45.782Z,11.33
2019-02-05T01:30:22.736Z,9.43
2019-02-05T01:32:51.430Z,8.07
2019-02-05T01:35:20.430Z,12.43
2019-02-05T01:37:49.185Z,9.07
2019-02-05T01:40:26.542Z,11.37
2019-02-05T01:42:55.521Z,11.70
2019-02-05T01:45:25.206Z,9.03
2019-02-05T01:47:54.131Z,8.30
2019-02-05T01:50:24.947Z,9.67
2019-02-05T01:52:53.843Z,10.13
2019-02-05T01:55:23.150Z,7.80
2019-02-05T01:57:51.825Z,9.80
2019-02-05T02:00:26.094Z,9.90
2019-02-05T02:02:54.690Z,11.80
2019-02-05T02:05:23.635Z,11.93
2019-02-05T02:07:52.294Z,11.33
2019-02-05T02:10:22.908Z,9.00
2019-02-05T02:12:51.638Z,10.53
2019-02-05T02:15:20.271Z,10.40
2019-02-05T02:17:48.922Z,9.50
2019-02-05T02:20:19.131Z,9.13
2019-02-05T02:22:48.629Z,10.77
2019-02-05T02:25:17.858Z,11.30
2019-02-05T02:27:47.864Z,8.13
2019-02-05T02:30:22.343Z,9.13
2019-02-05T02:32:51.244Z,9.60
2019-02-05T02:35:19.868Z,10.67
2019-02-05T02:37:48.534Z,10.93
2019-02-05T02:40:17.405Z,8.30
2019-02-05T02:42:46.036Z,6.63
2019-02-05T02:45:15.813Z,8.27
2019-02-05T02:47:44.462Z,9.10
2019-02-05T02:50:18.293Z,6.20
2019-02-05T02:52:47.582Z,7.70
2019-02-05T02:55:16.416Z,10.37
2019-02-05T02:57:45.270Z,7.10
2019-02-05T03:00:21.856Z,10.17
2019-02-05T03:02:51.875Z,9.77
2019-02-05T03:05:25.372Z,9.03
2019-02-05T03:07:54.012Z,6.50
2019-02-05T03:10:28.161Z,9.80
2019-02-05T03:12:57.130Z,8.47
2019-02-05T03:15:25.831Z,8.43
2019-02-05T03:17:54.581Z,9.77
2019-02-05T03:20:23.591Z,8.13
2019-02-05T03:22:52.906Z,8.83
2019-02-05T03:25:25.657Z,9.07
2019-02-05T03:27:54.749Z,11.90
2019-02-05T03:30:25.064Z,9.57
2019-02-05T03:32:55.738Z,7.23
2019-02-05T03:35:24.873Z,26.23
2019-02-05T03:37:53.595Z,21.60
2019-02-05T03:40:30.952Z,15.93
2019-02-05T03:43:00.107Z,11.30
2019-02-05T03:45:31.711Z,9.97
2019-02-05T03:48:04.790Z,10.37
2019-02-05T03:50:38.987Z,9.53
2019-02-05T03:53:25.979Z,6.40
2019-02-05T03:56:21.503Z,10.83
2019-02-05T03:59:05.320Z,7.13
2019-02-05T04:01:55.026Z,8.50
2019-02-05T04:04:29.634Z,6.63
2019-02-05T04:07:03.875Z,6.90
2019-02-05T04:09:52.277Z,7.93
2019-02-05T04:12:24.354Z,7.47
2019-02-05T04:14:56.411Z,6.33
2019-02-05T04:17:33.822Z,10.13
2019-02-05T04:20:23.485Z,7.45
2019-02-05T04:23:04.167Z,6.17
2019-02-05T04:25:56.678Z,9.93
2019-02-05T04:28:28.378Z,7.10
2019-02-05T04:31:15.466Z,5.80
2019-02-05T04:34:08.314Z,7.53
2019-02-05T04:36:40.027Z,8.30
2019-02-05T04:39:28.268Z,8.77
2019-02-05T04:42:17.664Z,9.70
2019-02-05T04:44:52.419Z,8.73
2019-02-05T04:47:26.721Z,6.13
2019-02-05T04:49:58.418Z,5.87
2019-02-05T04:52:48.023Z,8.78
2019-02-05T04:55:41.115Z,8.27
2019-02-05T04:58:22.307Z,6.73
2019-02-05T05:01:29.161Z,5.70
2019-02-05T05:04:03.718Z,7.40
2019-02-05T05:06:47.646Z,6.73
2019-02-05T05:09:42.435Z,7.93
2019-02-05T05:12:11.073Z,6.07
2019-02-05T05:14:40.394Z,6.50
2019-02-05T05:17:08.985Z,7.10
2019-02-05T05:19:37.570Z,11.97
2019-02-05T05:22:06.576Z,8.73
2019-02-05T05:24:35.294Z,7.77
2019-02-05T05:27:05.427Z,6.53
2019-02-05T05:29:34.249Z,7.10
2019-02-05T05:32:03.380Z,10.67
2019-02-05T05:34:32.004Z,7.97
2019-02-05T05:36:59.522Z,6.53
2019-02-05T05:39:28.147Z,6.77
2019-02-05T05:41:56.714Z,7.73
2019-02-05T05:44:25.294Z,6.77
2019-02-05T05:46:53.958Z,9.10
2019-02-05T05:49:22.811Z,8.93
2019-02-05T05:51:51.366Z,8.33
2019-02-05T05:54:20.035Z,7.67
2019-02-05T05:56:48.582Z,8.10
2019-02-05T05:59:17.449Z,8.53
2019-02-05T06:01:46.028Z,8.20
2019-02-05T06:04:14.743Z,6.10
2019-02-05T06:06:43.686Z,7.00
2019-02-05T06:09:12.886Z,7.73
2019-02-05T06:11:41.450Z,8.50
2019-02-05T06:14:10.047Z,8.83
2019-02-05T06:16:38.671Z,7.87
2019-02-05T06:19:07.274Z,8.30
2019-02-05T06:21:35.841Z,7.90
2019-02-05T06:24:05.038Z,8.33
2019-02-05T06:26:33.714Z,6.67
2019-02-05T06:29:02.403Z,9.93
2019-02-05T06:31:30.970Z,7.73
2019-02-05T06:33:59.747Z,8.67
2019-02-05T06:36:28.445Z,6.07
2019-02-05T06:38:57.034Z,7.57
2019-02-05T06:41:25.690Z,5.97
2019-02-05T06:43:54.343Z,6.03
2019-02-05T06:46:22.917Z,6.93
2019-02-05T06:48:51.742Z,7.67
2019-02-05T06:51:20.391Z,6.20
2019-02-05T06:53:48.990Z,7.50
2019-02-05T06:56:17.947Z,5.67
2019-02-05T06:58:46.846Z,8.10
2019-02-05T07:01:15.530Z,9.33
2019-02-05T07:03:44.237Z,9.63
2019-02-05T07:06:13.089Z,7.57
2019-02-05T07:08:42.571Z,5.97
2019-02-05T07:11:11.348Z,8.27
2019-02-05T07:13:40.406Z,7.73
2019-02-05T07:16:09.347Z,7.13
2019-02-05T07:18:37.966Z,10.50
2019-02-05T07:21:06.615Z,8.55
2019-02-05T07:23:35.222Z,8.43
2019-02-05T07:26:04.038Z,7.23
2019-02-05T07:28:32.615Z,10.60
2019-02-05T07:31:01.524Z,11.13
2019-02-05T07:33:30.128Z,10.77
2019-02-05T07:35:58.732Z,10.37
2019-02-05T07:38:27.409Z,8.43
2019-02-05T07:40:56.182Z,8.63
2019-02-05T07:43:24.763Z,9.23
2019-02-05T07:45:53.391Z,8.97
2019-02-05T07:48:22.233Z,6.80
2019-02-05T07:50:51.003Z,5.40
2019-02-05T07:53:19.686Z,8.73
2019-02-05T07:55:48.343Z,7.70
2019-02-05T07:58:16.976Z,5.40
2019-02-05T08:00:45.632Z,5.67
2019-02-05T08:03:14.232Z,8.43
2019-02-05T08:05:42.834Z,6.03
2019-02-05T08:08:12.264Z,5.63
2019-02-05T08:10:40.848Z,6.43
2019-02-05T08:13:09.707Z,8.03
2019-02-05T08:15:38.352Z,8.13
2019-02-05T08:18:07.387Z,6.37
2019-02-05T08:20:35.977Z,6.63
2019-02-05T08:23:04.943Z,5.73
2019-02-05T08:25:33.539Z,5.57
2019-02-05T08:28:02.701Z,5.97
2019-02-05T08:30:36.968Z,7.40
2019-02-05T08:33:05.930Z,6.77
2019-02-05T08:35:34.572Z,5.87
2019-02-05T08:38:03.191Z,6.30
2019-02-05T08:40:31.848Z,6.10
2019-02-05T08:43:00.787Z,5.43
2019-02-05T08:45:34.720Z,6.23
2019-02-05T08:48:03.287Z,6.10
2019-02-05T08:50:33.507Z,6.33
2019-02-05T08:53:02.103Z,8.00
2019-02-05T08:55:31.040Z,5.37
2019-02-05T08:58:02.790Z,4.80
2019-02-05T09:00:37.127Z,6.20
2019-02-05T09:03:07.138Z,8.93
2019-02-05T09:05:35.747Z,5.33
2019-02-05T09:08:04.404Z,8.20
2019-02-05T09:10:35.505Z,5.80
2019-02-05T09:13:04.870Z,5.73
2019-02-05T09:15:33.776Z,4.40
2019-02-05T09:18:02.819Z,4.87
2019-02-05T09:20:31.559Z,7.43
2019-02-05T09:23:00.399Z,5.73
2019-02-05T09:25:29.137Z,5.43
2019-02-05T09:27:57.872Z,6.50
2019-02-05T09:30:35.012Z,5.53
2019-02-05T09:33:06.838Z,4.30
2019-02-05T09:35:35.475Z,4.70
2019-02-05T09:38:04.314Z,5.50
2019-02-05T09:40:33.865Z,3.97
2019-02-05T09:43:02.592Z,6.23
2019-02-05T09:45:31.997Z,5.57
2019-02-05T09:48:01.607Z,4.33
2019-02-05T09:50:43.479Z,6.13
2019-02-05T09:53:01.343Z,6.07
2019-02-05T09:55:30.008Z,5.53
2019-02-05T09:57:58.851Z,5.60
2019-02-05T10:00:33.143Z,5.67
2019-02-05T10:03:01.800Z,5.77
2019-02-05T10:05:34.995Z,5.20
2019-02-05T10:08:03.805Z,5.67
2019-02-05T10:10:32.379Z,5.10
2019-02-05T10:13:01.374Z,6.10
2019-02-05T10:15:35.336Z,7.50
2019-02-05T10:18:04.686Z,6.17
2019-02-05T10:20:33.423Z,6.60
2019-02-05T10:23:03.248Z,5.10
2019-02-05T10:25:32.178Z,7.77
2019-02-05T10:28:00.763Z,9.53
2019-02-05T10:30:31.692Z,8.80
2019-02-05T10:33:02.594Z,7.97
2019-02-05T10:35:31.164Z,8.88
2019-02-05T10:38:00.213Z,6.70
2019-02-05T10:40:29.150Z,6.80
2019-02-05T10:42:58.164Z,5.67
2019-02-05T10:45:27.416Z,8.53
2019-02-05T10:47:56.468Z,8.10
2019-02-05T10:50:25.501Z,5.90
2019-02-05T10:52:54.327Z,9.07
2019-02-05T10:55:23.551Z,7.67
2019-02-05T10:57:54.455Z,8.53
2019-02-05T11:00:28.534Z,6.87
2019-02-05T11:02:58.840Z,7.10
2019-02-05T11:05:29.284Z,7.37
2019-02-05T11:07:58.018Z,6.70
2019-02-05T11:10:26.676Z,7.83
2019-02-05T11:12:55.510Z,8.95
2019-02-05T11:15:29.364Z,9.00
2019-02-05T11:18:17.487Z,7.10
2019-02-05T11:20:46.095Z,7.83
2019-02-05T11:23:14.715Z,9.67
2019-02-05T11:25:43.424Z,7.17
2019-02-05T11:28:12.035Z,7.00
2019-02-05T11:30:43.353Z,8.40
2019-02-05T11:33:12.490Z,8.73
2019-02-05T11:35:41.202Z,7.90
2019-02-05T11:38:10.440Z,9.60
2019-02-05T11:40:40.655Z,7.37
2019-02-05T11:43:09.350Z,8.17
2019-02-05T11:45:38.037Z,8.77
2019-02-05T11:48:12.686Z,9.27
2019-02-05T11:50:41.434Z,8.47
2019-02-05T11:53:10.023Z,8.57
2019-02-05T11:55:39.194Z,9.73
2019-02-05T11:58:07.785Z,8.33
2019-02-05T12:00:38.264Z,11.13
2019-02-05T12:03:08.403Z,8.67
2019-02-05T12:05:37.527Z,9.93
2019-02-05T12:08:06.570Z,21.63
2019-02-05T12:10:35.255Z,12.40
2019-02-05T12:13:04.112Z,9.40
2019-02-05T12:15:32.902Z,10.87
2019-02-05T12:18:01.613Z,10.73
2019-02-05T12:20:30.275Z,12.30
2019-02-05T12:22:59.380Z,11.90
2019-02-05T12:25:28.284Z,13.13
2019-02-05T12:27:57.032Z,12.03
2019-02-05T12:30:44.416Z,11.23
2019-02-05T12:33:07.884Z,10.83
2019-02-05T12:35:37.246Z,12.27
2019-02-05T12:38:06.764Z,11.13
2019-02-05T12:40:36.092Z,12.37
2019-02-05T12:43:05.559Z,11.50
2019-02-05T12:45:35.954Z,12.70
2019-02-05T12:48:05.210Z,12.83
2019-02-05T12:50:42.152Z,15.57
2019-02-05T12:53:10.747Z,14.13
2019-02-05T12:55:39.435Z,14.30
2019-02-05T12:58:08.169Z,12.27
2019-02-05T13:00:58.278Z,11.73
2019-02-05T13:03:20.673Z,14.63
2019-02-05T13:05:49.394Z,13.30
2019-02-05T13:08:18.139Z,13.00
2019-02-05T13:10:49.562Z,17.63
2019-02-05T13:13:18.518Z,13.43
2019-02-05T13:15:47.189Z,16.43
2019-02-05T13:18:15.896Z,13.33
2019-02-05T13:20:44.876Z,12.90
2019-02-05T13:23:13.615Z,12.53
2019-02-05T13:25:42.619Z,14.67
2019-02-05T13:28:12.554Z,13.77
2019-02-05T13:30:41.322Z,11.67
2019-02-05T13:33:11.243Z,13.67
2019-02-05T13:35:40.584Z,17.13
2019-02-05T13:38:09.329Z,13.60
2019-02-05T13:40:38.072Z,14.80
2019-02-05T13:43:07.213Z,17.40
2019-02-05T13:45:38.600Z,16.93
2019-02-05T13:48:08.141Z,14.17
2019-02-05T13:50:37.175Z,14.70
2019-02-05T13:53:06.714Z,14.30
2019-02-05T13:55:40.523Z,14.63
2019-02-05T13:58:09.967Z,16.90
2019-02-05T14:00:46.946Z,16.50
2019-02-05T14:03:15.812Z,15.00
2019-02-05T14:05:45.316Z,14.03
2019-02-05T14:08:14.079Z,14.87
2019-02-05T14:10:45.010Z,17.70
2019-02-05T14:13:13.736Z,14.63
2019-02-05T14:15:45.179Z,15.30
2019-02-05T14:18:13.887Z,15.27
2019-02-05T14:20:42.637Z,15.77
2019-02-05T14:23:11.681Z,17.03
2019-02-05T14:25:40.418Z,17.03
2019-02-05T14:28:09.039Z,17.13
2019-02-05T14:30:49.335Z,17.47
2019-02-05T14:33:17.936Z,18.57
2019-02-05T14:35:46.635Z,17.70
2019-02-05T14:38:15.355Z,17.87
2019-02-05T14:40:44.072Z,19.87
2019-02-05T14:43:12.858Z,19.57
2019-02-05T14:45:41.908Z,19.30
2019-02-05T14:48:10.701Z,17.47
2019-02-05T14:50:41.938Z,19.00
2019-02-05T14:53:11.267Z,21.83
2019-02-05T14:55:39.975Z,17.80
2019-02-05T14:58:10.585Z,20.00
2019-02-05T15:00:39.904Z,18.67
2019-02-05T15:03:10.553Z,17.33
2019-02-05T15:05:39.875Z,17.90
2019-02-05T15:08:09.037Z,19.80
2019-02-05T15:10:37.635Z,20.80
2019-02-05T15:13:07.074Z,16.83
2019-02-05T15:15:36.238Z,24.27
2019-02-05T15:18:06.458Z,17.97
2019-02-05T15:20:40.545Z,22.93
2019-02-05T15:23:09.406Z,18.70
2019-02-05T15:25:38.444Z,20.07
2019-02-05T15:28:07.622Z,22.80
2019-02-05T15:30:41.742Z,20.43
2019-02-05T15:33:32.001Z,19.20
2019-02-05T15:36:02.258Z,15.80
2019-02-05T15:38:31.321Z,17.77
2019-02-05T15:41:00.248Z,19.90
2019-02-05T15:43:28.955Z,17.13
2019-02-05T15:45:57.695Z,20.17
2019-02-05T15:48:26.554Z,18.60
2019-02-05T15:50:55.157Z,21.00
2019-02-05T15:53:24.220Z,18.73
2019-02-05T15:55:52.999Z,22.80
2019-02-05T15:58:21.592Z,18.97
2019-02-05T16:00:50.319Z,20.87
2019-02-05T16:03:20.387Z,22.77
2019-02-05T16:05:49.037Z,19.47
2019-02-05T16:08:17.660Z,22.00
2019-02-05T16:10:46.344Z,18.10
2019-02-05T16:13:15.219Z,20.33
2019-02-05T16:15:43.838Z,24.43
2019-02-05T16:18:12.411Z,21.30
2019-02-05T16:20:41.018Z,22.40
2019-02-05T16:23:09.695Z,27.10
2019-02-05T16:25:38.682Z,25.32
2019-02-05T16:28:07.323Z,26.90
2019-02-05T16:30:36.072Z,25.20
2019-02-05T16:33:05.127Z,27.47
2019-02-05T16:35:33.735Z,24.67
2019-02-05T16:38:02.581Z,25.03
2019-02-05T16:40:36.250Z,21.00
2019-02-05T16:43:05.971Z,23.23
2019-02-05T16:45:34.751Z,27.20
2019-02-05T16:48:03.421Z,27.30
2019-02-05T16:50:34.749Z,23.00
2019-02-05T16:53:03.997Z,24.67
2019-02-05T16:55:33.207Z,26.00
2019-02-05T16:58:01.895Z,24.17
2019-02-05T17:00:35.251Z,24.43
2019-02-05T17:03:04.692Z,27.63
2019-02-05T17:05:35.935Z,24.70
2019-02-05T17:08:05.264Z,25.93
2019-02-05T17:10:34.009Z,25.87
2019-02-05T17:13:02.646Z,27.80
2019-02-05T17:15:31.296Z,23.77
2019-02-05T17:18:00.036Z,27.10
2019-02-05T17:20:30.682Z,27.40
2019-02-05T17:23:00.673Z,34.93
2019-02-05T17:25:30.894Z,28.53
2019-02-05T17:28:01.735Z,30.33
2019-02-05T17:30:33.504Z,23.83
2019-02-05T17:33:02.435Z,25.83
2019-02-05T17:35:31.086Z,26.77
2019-02-05T17:38:00.151Z,26.85
2019-02-05T17:40:28.910Z,22.30
2019-02-05T17:42:57.484Z,24.13
2019-02-05T17:45:28.751Z,26.73
2019-02-05T17:47:58.102Z,31.33
2019-02-05T17:50:26.748Z,24.23
2019-02-05T17:52:55.368Z,24.43
2019-02-05T17:55:24.475Z,30.40
2019-02-05T17:57:53.232Z,27.00
2019-02-05T18:00:48.872Z,29.60
2019-02-05T18:03:17.599Z,32.17
2019-02-05T18:05:46.571Z,31.30
2019-02-05T18:08:15.191Z,31.73
2019-02-05T18:10:43.772Z,28.23
2019-02-05T18:13:12.391Z,33.30
2019-02-05T18:15:43.012Z,27.30
2019-02-05T18:18:11.743Z,23.57
2019-02-05T18:20:40.350Z,29.77
2019-02-05T18:23:09.024Z,31.00
2019-02-05T18:25:37.700Z,28.23
2019-02-05T18:28:06.542Z,26.07
2019-02-05T18:30:37.804Z,31.80
2019-02-05T18:33:07.143Z,28.53
2019-02-05T18:35:36.076Z,26.53
2019-02-05T18:38:08.364Z,28.67
2019-02-05T18:40:37.048Z,28.33
2019-02-05T18:43:05.958Z,25.97
2019-02-05T18:45:34.578Z,28.17
2019-02-05T18:48:03.251Z,26.03
2019-02-05T18:50:31.928Z,32.10
2019-02-05T18:53:00.532Z,28.33
2019-02-05T18:55:43.357Z,28.63
2019-02-05T18:58:12.002Z,31.10
2019-02-05T19:00:45.588Z,28.87
2019-02-05T19:03:16.002Z,32.83
2019-02-05T19:05:44.731Z,34.23
2019-02-05T19:08:16.323Z,32.77
2019-02-05T19:10:43.864Z,28.83
2019-02-05T19:13:12.540Z,32.97
2019-02-05T19:15:41.678Z,34.13
2019-02-05T19:18:11.384Z,39.03
2019-02-05T19:20:40.158Z,28.77
2019-02-05T19:23:10.380Z,35.07
2019-02-05T19:25:56.329Z,33.43
2019-02-05T19:28:30.403Z,33.37
2019-02-05T19:31:00.858Z,30.50
2019-02-05T19:33:29.478Z,31.43
2019-02-05T19:35:58.125Z,39.00
2019-02-05T19:38:26.740Z,35.53
2019-02-05T19:40:57.669Z,35.77
2019-02-05T19:43:25.700Z,35.08
2019-02-05T19:45:58.659Z,36.70
2019-02-05T19:48:33.437Z,37.67
2019-02-05T19:51:01.973Z,35.90
2019-02-05T19:53:30.611Z,35.17
2019-02-05T19:55:59.492Z,34.97
2019-02-05T19:58:28.076Z,34.07
2019-02-05T20:00:57.066Z,33.33
2019-02-05T20:03:26.009Z,36.10
2019-02-05T20:05:54.704Z,38.90
2019-02-05T20:08:23.373Z,34.63
2019-02-05T20:10:52.087Z,32.93
2019-02-05T20:13:20.654Z,32.70
2019-02-05T20:15:51.165Z,30.10
2019-02-05T20:18:19.560Z,33.13
2019-02-05T20:20:48.332Z,32.60
2019-02-05T20:23:17.047Z,39.90
2019-02-05T20:25:45.636Z,37.50
2019-02-05T20:28:14.612Z,36.23
2019-02-05T20:30:43.192Z,34.53
2019-02-05T20:33:12.120Z,31.30
2019-02-05T20:35:40.768Z,30.63
2019-02-05T20:38:09.512Z,35.50
2019-02-05T20:40:38.118Z,29.57
2019-02-05T20:43:06.696Z,38.47
2019-02-05T20:45:35.323Z,34.30
2019-02-05T20:48:04.682Z,37.40
2019-02-05T20:50:33.341Z,39.37
2019-02-05T20:53:13.059Z,39.27
2019-02-05T20:55:32.170Z,34.80
2019-02-05T20:58:00.912Z,34.37
2019-02-05T21:00:34.059Z,33.83
2019-02-05T21:03:02.649Z,31.97
2019-02-05T21:05:31.330Z,36.17
2019-02-05T21:08:00.302Z,34.43
2019-02-05T21:10:30.341Z,39.47
2019-02-05T21:12:59.032Z,32.17
2019-02-05T21:15:28.213Z,33.40
2019-02-05T21:17:56.886Z,32.07
2019-02-05T21:20:33.549Z,31.30
2019-02-05T21:23:01.752Z,32.10
2019-02-05T21:25:30.487Z,33.13
2019-02-05T21:27:59.278Z,35.57
2019-02-05T21:30:28.855Z,35.53
2019-02-05T21:32:57.483Z,35.50
2019-02-05T21:35:26.295Z,38.77
2019-02-05T21:37:54.904Z,40.85
2019-02-05T21:40:26.131Z,36.53
2019-02-05T21:42:54.788Z,38.23
2019-02-05T21:45:31.095Z,38.10
2019-02-05T21:47:59.691Z,34.73
2019-02-05T21:50:28.519Z,37.53
2019-02-05T21:52:57.664Z,34.27
2019-02-05T21:55:29.501Z,34.93
2019-02-05T21:57:58.240Z,34.03
2019-02-05T22:00:29.435Z,37.97
2019-02-05T22:02:58.445Z,32.10
2019-02-05T22:05:28.515Z,36.07
2019-02-05T22:07:57.192Z,40.03
2019-02-05T22:10:25.830Z,34.97
2019-02-05T22:12:54.899Z,37.03
2019-02-05T22:15:23.956Z,35.83
2019-02-05T22:17:52.751Z,37.03
2019-02-05T22:20:26.242Z,38.20
2019-02-05T22:22:58.042Z,41.77
2019-02-05T22:25:29.607Z,36.83
2019-02-05T22:27:58.415Z,44.55
2019-02-05T22:30:35.061Z,32.10
2019-02-05T22:33:04.806Z,37.33
2019-02-05T22:35:33.396Z,40.67
2019-02-05T22:38:02.075Z,35.63
2019-02-05T22:40:30.831Z,41.37
2019-02-05T22:42:59.423Z,40.53
2019-02-05T22:45:34.507Z,36.40
2019-02-05T22:48:03.207Z,37.73
2019-02-05T22:50:33.851Z,35.87
2019-02-05T22:53:05.322Z,38.70
2019-02-05T22:55:34.004Z,36.83
2019-02-05T22:58:02.653Z,41.43
2019-02-05T23:00:56.354Z,41.03
2019-02-05T23:03:28.248Z,34.70
2019-02-05T23:06:21.268Z,38.53
2019-02-05T23:08:50.100Z,33.00
2019-02-05T23:11:45.036Z,35.40
2019-02-05T23:14:13.642Z,34.03
2019-02-05T23:16:42.372Z,39.00
2019-02-05T23:19:11.484Z,37.27
2019-02-05T23:21:40.611Z,37.77
2019-02-05T23:24:09.231Z,43.80
2019-02-05T23:26:37.893Z,42.87
2019-02-05T23:29:06.931Z,42.07
2019-02-05T23:31:35.551Z,43.63
2019-02-05T23:34:04.222Z,36.50
2019-02-05T23:36:32.844Z,38.63
2019-02-05T23:39:01.486Z,43.00
2019-02-05T23:41:30.060Z,42.03
2019-02-05T23:43:58.715Z,36.50
2019-02-05T23:46:27.363Z,40.63
2019-02-05T23:48:56.305Z,43.03
2019-02-05T23:51:24.993Z,38.03
2019-02-05T23:53:53.693Z,36.43
2019-02-05T23:56:25.677Z,37.17
2019-02-05T23:58:52.520Z,38.93
